Oklahoma — C6VR8 — position and weather

sailwx.info

Track history (hours):
 
Tides and Currents Weather Stations Pressure Air Temp Water Temp Dewpoint Dewpoint Depression Visibility Wind Speed Wind Dir Waves Ship Positions

Oklahoma

Last reported at 2017-Sep-25 21:03 UTC. Time now 2017-Sep-26 10:51 UTC.
Position N 35°56' W 126°50'.

Length 238 m; draft 8.4 m.

Type: Tanker. MMSI: 308664000.

Date/timePositionNaut miles runAvg speedWind from/ knotsBaromVisibWave heightAir tempDewpointWater temp
2017-Sep-25 21:03N 35°56' W 126°50'311.3
2017-Sep-25 20:48N 35°54' W 126°48'411.5
2017-Sep-25 20:30N 35°51' W 126°45'811.6
2017-Sep-25 19:50N 35°46' W 126°38'411.9
2017-Sep-25 19:30N 35°43' W 126°34'6 0.5
2017-Sep-25 08:02N 35°39' W 126°29'0 2.2
2017-Sep-25 07:56N 35°39' W 126°29'18 2.3
2017-Sep-25 00:18N 35°51' W 126°45'1910.0
2017-Sep-24 22:26N 35°33' W 126°50'  
2017-Sep-16 06:46N 37°20' W 124°03'612.7
2017-Sep-16 06:17N 37°22' W 123°56'412.9
2017-Sep-16 06:00N 37°23' W 123°51'612.8
2017-Sep-16 05:30N 37°25' W 123°43'612.7
2017-Sep-16 05:00N 37°26' W 123°36'613.0
2017-Sep-16 04:30N 37°28' W 123°28'713.1
2017-Sep-16 04:00N 37°30' W 123°20'713.0
2017-Sep-16 03:30N 37°32' W 123°12'612.7
2017-Sep-16 03:00N 37°34' W 123°05'612.6
2017-Sep-16 02:30N 37°37' W 122°58'612.6
2017-Sep-16 02:00N 37°41' W 122°51'612.1
2017-Sep-16 01:30N 37°43' W 122°44'510.3
2017-Sep-16 01:00N 37°46' W 122°39'611.5
2017-Sep-16 00:30N 37°48' W 122°32'510.6
2017-Sep-16 00:00N 37°51' W 122°26'510.3
2017-Sep-15 23:31N 37°47' W 122°21'3 5.2
2017-Sep-15 22:58N 37°44' W 122°21'0 0.1
2017-Sep-15 22:28N 37°44' W 122°21'0 0.1
2017-Sep-15 21:58N 37°44' W 122°21'0 0.0
2017-Sep-15 21:28N 37°44' W 122°21'  
Track history (hours):
 
Tides and Currents Weather Stations Pressure Air Temp Water Temp Dewpoint Dewpoint Depression Visibility Wind Speed Wind Dir Waves Ship Positions

Oklahoma

Last reported at 2017-Sep-25 21:03 UTC. Time now 2017-Sep-26 10:52 UTC.
Position N 35°56' W 126°50'.

Length 238 m; draft 8.4 m.

Type: Tanker. MMSI: 308664000.

Date/timePositionNaut miles runAvg speedWind from/ knotsBaromVisibWave heightAir tempDewpointWater temp
2017-Sep-25 21:03N 35°56' W 126°50'311.3
2017-Sep-25 20:48N 35°54' W 126°48'411.5
2017-Sep-25 20:30N 35°51' W 126°45'811.6
2017-Sep-25 19:50N 35°46' W 126°38'411.9
2017-Sep-25 19:30N 35°43' W 126°34'6 0.5
2017-Sep-25 08:02N 35°39' W 126°29'0 2.2
2017-Sep-25 07:56N 35°39' W 126°29'18 2.3
2017-Sep-25 00:18N 35°51' W 126°45'1910.0
2017-Sep-24 22:26N 35°33' W 126°50'  
2017-Sep-16 06:46N 37°20' W 124°03'612.7
2017-Sep-16 06:17N 37°22' W 123°56'412.9
2017-Sep-16 06:00N 37°23' W 123°51'612.8
2017-Sep-16 05:30N 37°25' W 123°43'612.7
2017-Sep-16 05:00N 37°26' W 123°36'613.0
2017-Sep-16 04:30N 37°28' W 123°28'713.1
2017-Sep-16 04:00N 37°30' W 123°20'713.0
2017-Sep-16 03:30N 37°32' W 123°12'612.7
2017-Sep-16 03:00N 37°34' W 123°05'612.6
2017-Sep-16 02:30N 37°37' W 122°58'612.6
2017-Sep-16 02:00N 37°41' W 122°51'612.1
2017-Sep-16 01:30N 37°43' W 122°44'510.3
2017-Sep-16 01:00N 37°46' W 122°39'611.5
2017-Sep-16 00:30N 37°48' W 122°32'510.6
2017-Sep-16 00:00N 37°51' W 122°26'510.3
2017-Sep-15 23:31N 37°47' W 122°21'3 5.2
2017-Sep-15 22:58N 37°44' W 122°21'0 0.1
2017-Sep-15 22:28N 37°44' W 122°21'0 0.1
2017-Sep-15 21:58N 37°44' W 122°21'0 0.0
2017-Sep-15 21:28N 37°44' W 122°21'  

Dump ship's entire track history